createdAt,value
2024-05-09T00:00:36.358Z,100.00
2024-05-09T00:03:26.856Z,100.00
2024-05-09T00:05:53.818Z,100.00
2024-05-09T00:08:21.207Z,100.00
2024-05-09T00:10:48.270Z,100.00
2024-05-09T00:13:15.543Z,100.00
2024-05-09T00:15:42.364Z,100.00
2024-05-09T00:18:09.699Z,100.00
2024-05-09T00:20:40.007Z,100.00
2024-05-09T00:23:13.586Z,100.00
2024-05-09T00:25:44.400Z,100.00
2024-05-09T00:28:12.892Z,100.00
2024-05-09T00:30:40.329Z,100.00
2024-05-09T00:33:09.416Z,100.00
2024-05-09T00:35:38.420Z,100.00
2024-05-09T00:38:06.177Z,100.00
2024-05-09T00:40:40.414Z,100.00
2024-05-09T00:43:14.371Z,100.00
2024-05-09T00:45:42.801Z,100.00
2024-05-09T00:48:14.188Z,100.00
2024-05-09T00:50:44.182Z,100.00
2024-05-09T00:53:13.297Z,100.00
2024-05-09T00:55:40.496Z,100.00
2024-05-09T00:58:09.845Z,100.00
2024-05-09T01:00:39.995Z,100.00
2024-05-09T01:03:13.388Z,100.00
2024-05-09T01:05:42.422Z,100.00
2024-05-09T01:08:10.957Z,100.00
2024-05-09T01:10:38.114Z,100.00
2024-05-09T01:13:06.176Z,100.00
2024-05-09T01:15:34.843Z,100.00
2024-05-09T01:18:11.035Z,100.00
2024-05-09T01:20:42.490Z,100.00
2024-05-09T01:23:14.121Z,100.00
2024-05-09T01:25:42.724Z,100.00
2024-05-09T01:28:10.124Z,100.00
2024-05-09T01:30:37.927Z,100.00
2024-05-09T01:33:08.049Z,100.00
2024-05-09T01:35:36.992Z,100.00
2024-05-09T01:38:04.732Z,100.00
2024-05-09T01:40:37.402Z,100.00
2024-05-09T01:43:11.075Z,100.00
2024-05-09T01:45:39.492Z,100.00
2024-05-09T01:48:07.877Z,100.00
2024-05-09T01:50:39.603Z,100.00
2024-05-09T01:53:14.912Z,100.00
2024-05-09T01:55:42.966Z,100.00
2024-05-09T01:58:10.543Z,100.00
2024-05-09T02:00:41.084Z,100.00
2024-05-09T02:03:13.533Z,100.00
2024-05-09T02:05:43.708Z,100.00
2024-05-09T02:08:15.555Z,100.00
2024-05-09T02:10:44.125Z,100.00
2024-05-09T02:13:11.550Z,100.00
2024-05-09T02:15:38.721Z,100.00
2024-05-09T02:18:07.038Z,100.00
2024-05-09T02:20:38.822Z,100.00
2024-05-09T02:23:06.961Z,100.00
2024-05-09T02:25:34.482Z,100.00
2024-05-09T02:28:02.056Z,100.00
2024-05-09T02:30:38.251Z,100.00
2024-05-09T02:33:10.786Z,100.00
2024-05-09T02:35:39.641Z,100.00
2024-05-09T02:38:07.043Z,100.00
2024-05-09T02:40:37.865Z,100.00
2024-05-09T02:43:07.658Z,100.00
2024-05-09T02:45:34.710Z,100.00
2024-05-09T02:48:02.436Z,100.00
2024-05-09T02:50:36.896Z,100.00
2024-05-09T02:53:11.020Z,100.00
2024-05-09T02:55:38.599Z,100.00
2024-05-09T02:58:09.019Z,100.00
2024-05-09T03:00:39.897Z,100.00
2024-05-09T03:03:12.110Z,100.00
2024-05-09T03:05:41.331Z,100.00
2024-05-09T03:08:09.395Z,100.00
2024-05-09T03:10:38.497Z,100.00
2024-05-09T03:13:15.292Z,100.00
2024-05-09T03:15:43.539Z,100.00
2024-05-09T03:18:11.518Z,100.00
2024-05-09T03:20:39.171Z,100.00
2024-05-09T03:23:08.659Z,100.00
2024-05-09T03:25:36.599Z,100.00
2024-05-09T03:28:04.076Z,100.00
2024-05-09T03:30:39.646Z,100.00
2024-05-09T03:33:15.583Z,100.00
2024-05-09T03:35:43.866Z,100.00
2024-05-09T03:38:11.212Z,100.00
2024-05-09T03:40:47.260Z,100.00
2024-05-09T03:43:14.961Z,100.00
2024-05-09T03:45:45.531Z,100.00
2024-05-09T03:48:13.328Z,100.00
2024-05-09T03:50:40.689Z,100.00
2024-05-09T03:53:10.885Z,100.00
2024-05-09T03:55:37.813Z,100.00
2024-05-09T03:58:05.338Z,100.00
2024-05-09T04:00:38.017Z,100.00
2024-05-09T04:03:09.972Z,100.00
2024-05-09T04:05:43.762Z,100.00
2024-05-09T04:08:11.857Z,100.00
2024-05-09T04:10:38.914Z,100.00
2024-05-09T04:13:06.282Z,100.00
2024-05-09T04:15:33.297Z,100.00
2024-05-09T04:18:01.630Z,100.00
2024-05-09T04:20:37.268Z,100.00
2024-05-09T04:23:08.651Z,100.00
2024-05-09T04:25:36.188Z,100.00
2024-05-09T04:28:03.796Z,100.00
2024-05-09T04:30:37.284Z,100.00
2024-05-09T04:33:09.274Z,100.00
2024-05-09T04:35:38.638Z,100.00
2024-05-09T04:38:06.560Z,100.00
2024-05-09T04:40:36.265Z,100.00
2024-05-09T04:43:15.048Z,100.00
2024-05-09T04:45:42.095Z,100.00
2024-05-09T04:48:09.496Z,100.00
2024-05-09T04:50:38.931Z,89.41
2024-05-09T04:53:09.240Z,82.45
2024-05-09T04:55:37.557Z,77.13
2024-05-09T04:58:05.608Z,72.92
2024-05-09T05:00:36.937Z,70.09
2024-05-09T05:03:13.093Z,66.63
2024-05-09T05:05:42.548Z,62.56
2024-05-09T05:08:18.065Z,62.45
2024-05-09T05:10:47.193Z,60.31
2024-05-09T05:13:23.847Z,60.26
2024-05-09T05:15:58.450Z,64.05
2024-05-09T05:18:27.721Z,67.90
2024-05-09T05:20:55.342Z,62.89
2024-05-09T05:23:22.984Z,57.89
2024-05-09T05:25:52.362Z,58.86
2024-05-09T05:28:20.124Z,57.73
2024-05-09T05:30:47.321Z,56.11
2024-05-09T05:33:15.971Z,55.56
2024-05-09T05:35:43.257Z,53.67
2024-05-09T05:38:11.283Z,52.07
2024-05-09T05:40:39.350Z,51.15
2024-05-09T05:43:09.220Z,49.14
2024-05-09T05:45:36.362Z,51.04
2024-05-09T05:48:05.759Z,54.17
2024-05-09T05:50:36.502Z,51.88
2024-05-09T05:53:07.110Z,50.03
2024-05-09T05:55:34.685Z,50.50
2024-05-09T05:58:02.755Z,48.69
2024-05-09T06:00:37.317Z,47.01
2024-05-09T06:03:11.791Z,47.31
2024-05-09T06:05:46.581Z,45.75
2024-05-09T06:08:14.355Z,43.91
2024-05-09T06:10:42.086Z,42.38
2024-05-09T06:13:13.036Z,43.59
2024-05-09T06:15:41.198Z,43.14
2024-05-09T06:18:10.758Z,42.83
2024-05-09T06:20:39.862Z,42.53
2024-05-09T06:23:08.576Z,41.74
2024-05-09T06:25:36.282Z,41.19
2024-05-09T06:28:04.338Z,40.70
2024-05-09T06:30:38.728Z,40.57
2024-05-09T06:33:10.211Z,40.80
2024-05-09T06:35:38.612Z,40.87
2024-05-09T06:38:08.712Z,41.05
2024-05-09T06:40:38.622Z,40.88
2024-05-09T06:43:15.076Z,40.14
2024-05-09T06:45:43.453Z,39.30
2024-05-09T06:48:11.607Z,38.22
2024-05-09T06:50:40.061Z,38.06
2024-05-09T06:53:08.320Z,38.10
2024-05-09T06:55:36.771Z,38.81
2024-05-09T06:58:05.826Z,39.08
2024-05-09T07:00:38.851Z,39.91
2024-05-09T07:03:13.294Z,38.90
2024-05-09T07:05:42.850Z,38.40
2024-05-09T07:08:10.168Z,38.46
2024-05-09T07:10:37.739Z,37.45
2024-05-09T07:13:12.052Z,37.23
2024-05-09T07:15:40.167Z,37.16
2024-05-09T07:18:16.634Z,37.07
2024-05-09T07:20:45.785Z,36.67
2024-05-09T07:23:13.114Z,36.62
2024-05-09T07:25:41.278Z,36.27
2024-05-09T07:28:15.489Z,35.56
2024-05-09T07:30:42.969Z,36.87
2024-05-09T07:33:12.204Z,35.35
2024-05-09T07:35:39.757Z,36.06
2024-05-09T07:38:06.799Z,35.90
2024-05-09T07:40:36.780Z,36.33
2024-05-09T07:43:08.389Z,37.20
2024-05-09T07:53:36.775Z,38.68
2024-05-09T07:55:56.864Z,38.62
2024-05-09T07:58:27.632Z,38.97
2024-05-09T08:00:55.413Z,39.51
2024-05-09T08:03:23.141Z,38.32
2024-05-09T08:05:51.815Z,38.62
2024-05-09T08:08:18.787Z,39.13
2024-05-09T08:10:46.452Z,39.41
2024-05-09T08:13:13.377Z,40.01
2024-05-09T08:15:41.263Z,41.64
2024-05-09T08:18:09.790Z,42.58
2024-05-09T08:20:38.255Z,44.03
2024-05-09T08:23:05.187Z,43.68
2024-05-09T08:25:32.494Z,44.61
2024-05-09T08:27:59.510Z,45.25
2024-05-09T08:30:33.472Z,46.25
2024-05-09T08:33:04.491Z,45.37
2024-05-09T08:35:32.446Z,46.30
2024-05-09T08:37:59.405Z,46.25
2024-05-09T08:40:33.965Z,45.72
2024-05-09T08:43:07.663Z,46.71
2024-05-09T08:45:36.551Z,44.03
2024-05-09T08:48:07.036Z,46.05
2024-05-09T08:50:38.639Z,45.59
2024-05-09T08:53:08.107Z,45.53
2024-05-09T08:55:40.112Z,46.12
2024-05-09T08:58:10.924Z,44.10
2024-05-09T09:00:38.970Z,44.81
2024-05-09T09:03:09.444Z,44.41
2024-05-09T09:05:39.156Z,41.66
2024-05-09T09:08:08.150Z,42.87
2024-05-09T09:10:35.862Z,41.23
2024-05-09T09:13:09.627Z,42.33
2024-05-09T09:15:58.500Z,42.84
2024-05-09T09:18:26.637Z,43.10
2024-05-09T09:20:54.709Z,42.72
2024-05-09T09:23:21.670Z,42.65
2024-05-09T09:25:48.959Z,40.87
2024-05-09T09:28:16.083Z,40.54
2024-05-09T09:30:44.719Z,41.28
2024-05-09T09:33:12.198Z,40.66
2024-05-09T09:35:40.646Z,39.32
2024-05-09T09:38:09.915Z,38.91
2024-05-09T09:40:42.910Z,38.69
2024-05-09T09:43:21.573Z,38.50
2024-05-09T09:45:55.109Z,38.64
2024-05-09T09:48:23.080Z,39.78
2024-05-09T09:50:54.455Z,39.16
2024-05-09T09:53:23.101Z,38.85
2024-05-09T09:55:51.151Z,39.28
2024-05-09T09:58:18.254Z,38.70
2024-05-09T10:00:45.994Z,40.24
2024-05-09T10:03:13.249Z,39.26
2024-05-09T10:05:43.273Z,39.92
2024-05-09T10:08:12.911Z,40.29
2024-05-09T10:10:40.304Z,39.69
2024-05-09T10:13:08.585Z,39.39
2024-05-09T10:16:12.050Z,39.32
2024-05-09T10:18:39.958Z,38.04
2024-05-09T10:21:20.355Z,38.79
2024-05-09T10:24:03.470Z,37.84
2024-05-09T10:26:34.776Z,37.88
2024-05-09T10:29:14.727Z,38.64
2024-05-09T10:31:43.312Z,38.40
2024-05-09T10:34:21.156Z,38.16
2024-05-09T10:36:52.998Z,37.96
2024-05-09T10:39:25.946Z,37.62
2024-05-09T10:41:53.255Z,37.77
2024-05-09T10:44:21.456Z,37.69
2024-05-09T10:46:50.321Z,37.51
2024-05-09T10:49:17.486Z,38.48
2024-05-09T10:51:47.149Z,38.40
2024-05-09T10:54:14.185Z,37.76
2024-05-09T10:56:42.116Z,38.27
2024-05-09T10:59:08.967Z,37.98
2024-05-09T11:01:36.699Z,37.49
2024-05-09T11:04:04.106Z,37.81
2024-05-09T11:06:31.685Z,38.19
2024-05-09T11:08:58.668Z,37.52
2024-05-09T11:11:26.438Z,37.08
2024-05-09T11:13:53.325Z,36.81
2024-05-09T11:16:21.284Z,36.27
2024-05-09T11:18:58.950Z,36.13
2024-05-09T11:21:26.907Z,35.90
2024-05-09T11:23:53.939Z,36.38
2024-05-09T11:26:22.223Z,35.43
2024-05-09T11:28:50.446Z,34.99
2024-05-09T11:31:18.143Z,33.94
2024-05-09T11:33:48.214Z,32.67
2024-05-09T11:36:16.088Z,32.86
2024-05-09T11:38:43.030Z,32.93
2024-05-09T11:41:17.185Z,33.11
2024-05-09T11:43:44.553Z,33.15
2024-05-09T11:46:11.932Z,33.83
2024-05-09T11:48:39.812Z,32.79
2024-05-09T11:51:07.219Z,33.73
2024-05-09T11:53:34.066Z,33.52
2024-05-09T11:56:01.274Z,33.12
2024-05-09T11:58:29.826Z,32.87
2024-05-09T12:00:58.018Z,33.50
2024-05-09T12:03:25.034Z,33.79
2024-05-09T12:05:52.475Z,33.97
2024-05-09T12:08:19.351Z,32.98
2024-05-09T12:10:46.851Z,34.11
2024-05-09T12:13:13.914Z,34.30
2024-05-09T12:15:42.613Z,33.66
2024-05-09T12:18:09.568Z,33.60
2024-05-09T12:20:39.406Z,33.01
2024-05-09T12:23:09.607Z,32.83
2024-05-09T12:25:39.082Z,32.97
2024-05-09T12:28:07.108Z,33.23
2024-05-09T12:30:38.635Z,32.25
2024-05-09T12:33:08.409Z,32.92
2024-05-09T12:35:35.996Z,33.20
2024-05-09T12:38:02.940Z,33.12
2024-05-09T12:40:36.138Z,33.12
2024-05-09T12:43:07.228Z,33.84
2024-05-09T12:45:35.199Z,34.11
2024-05-09T12:48:02.244Z,34.28
2024-05-09T12:50:32.880Z,33.90
2024-05-09T12:53:02.609Z,34.08
2024-05-09T12:55:37.178Z,32.92
2024-05-09T12:58:11.629Z,33.94
2024-05-09T13:00:39.367Z,34.30
2024-05-09T13:03:07.472Z,34.47
2024-05-09T13:05:34.973Z,33.65
2024-05-09T13:08:03.562Z,33.55
2024-05-09T13:10:32.883Z,33.76
2024-05-09T13:13:01.431Z,34.35
2024-05-09T13:15:30.564Z,33.97
2024-05-09T13:18:00.474Z,33.67
2024-05-09T13:20:34.305Z,34.75
2024-05-09T13:23:07.947Z,34.06
2024-05-09T13:25:37.852Z,34.45
2024-05-09T13:28:06.284Z,34.98
2024-05-09T13:30:39.856Z,34.55
2024-05-09T13:33:09.991Z,35.05
2024-05-09T13:35:38.011Z,35.19
2024-05-09T13:38:05.416Z,34.37
2024-05-09T13:40:35.297Z,33.88
2024-05-09T13:43:04.910Z,34.70
2024-05-09T13:45:33.460Z,36.00
2024-05-09T13:48:01.056Z,35.36
2024-05-09T13:50:34.578Z,35.68
2024-05-09T13:53:05.804Z,36.49
2024-05-09T13:55:34.220Z,35.74
2024-05-09T13:58:01.382Z,35.92
2024-05-09T14:00:41.772Z,36.35
2024-05-09T14:03:14.440Z,35.62
2024-05-09T14:05:42.300Z,35.68
2024-05-09T14:08:09.581Z,36.09
2024-05-09T14:10:43.370Z,35.81
2024-05-09T14:13:10.625Z,35.43
2024-05-09T14:15:38.032Z,35.17
2024-05-09T14:18:05.569Z,36.06
2024-05-09T14:20:33.223Z,35.30
2024-05-09T14:23:00.938Z,35.63
2024-05-09T14:25:29.944Z,35.23
2024-05-09T14:28:00.367Z,35.67
2024-05-09T14:30:34.850Z,35.94
2024-05-09T14:33:05.925Z,36.34
2024-05-09T14:35:33.955Z,35.80
2024-05-09T14:38:00.833Z,35.84
2024-05-09T14:40:38.787Z,35.98
2024-05-09T14:43:11.044Z,35.59
2024-05-09T14:45:38.652Z,36.21
2024-05-09T14:48:06.973Z,35.36
2024-05-09T14:50:38.145Z,35.36
2024-05-09T14:53:07.821Z,36.32
2024-05-09T14:55:37.463Z,35.54
2024-05-09T14:58:08.172Z,35.21
2024-05-09T15:00:41.677Z,35.52
2024-05-09T15:03:11.917Z,35.99
2024-05-09T15:05:40.214Z,35.98
2024-05-09T15:08:08.278Z,36.04
2024-05-09T15:10:37.000Z,35.81
2024-05-09T15:13:06.021Z,36.59
2024-05-09T15:15:34.735Z,35.88
2024-05-09T15:18:01.801Z,35.92
2024-05-09T15:20:34.694Z,36.09
2024-05-09T15:23:04.994Z,35.99
2024-05-09T15:25:36.555Z,35.93
2024-05-09T15:28:05.002Z,36.21
2024-05-09T15:30:33.899Z,36.42
2024-05-09T15:33:06.404Z,36.21
2024-05-09T15:35:35.571Z,36.28
2024-05-09T15:38:03.738Z,35.68
2024-05-09T15:40:38.716Z,35.99
2024-05-09T15:43:09.705Z,35.75
2024-05-09T15:45:39.307Z,35.88
2024-05-09T15:48:07.622Z,35.93
2024-05-09T15:50:39.287Z,36.11
2024-05-09T15:53:13.133Z,37.01
2024-05-09T15:55:42.254Z,36.89
2024-05-09T15:58:09.788Z,35.65
2024-05-09T16:00:41.207Z,35.91
2024-05-09T16:03:11.312Z,36.39
2024-05-09T16:05:40.743Z,35.67
2024-05-09T16:08:08.076Z,35.74
2024-05-09T16:10:37.078Z,35.91
2024-05-09T16:13:04.977Z,34.84
2024-05-09T16:15:32.458Z,35.85
2024-05-09T16:18:00.328Z,34.82
2024-05-09T16:20:37.209Z,34.91
2024-05-09T16:23:08.504Z,34.95
2024-05-09T16:25:36.148Z,34.49
2024-05-09T16:28:07.433Z,35.11
2024-05-09T16:30:38.518Z,34.81
2024-05-09T16:33:06.431Z,34.44
2024-05-09T16:35:34.848Z,34.90
2024-05-09T16:38:02.834Z,35.65
2024-05-09T16:40:37.353Z,36.10
2024-05-09T16:43:08.070Z,35.21
2024-05-09T16:45:35.805Z,35.81
2024-05-09T16:48:03.236Z,35.56
2024-05-09T16:50:33.928Z,35.53
2024-05-09T16:53:05.876Z,35.64
2024-05-09T16:55:34.528Z,35.49
2024-05-09T16:58:01.997Z,36.16
2024-05-09T17:00:38.847Z,35.90
2024-05-09T17:03:10.952Z,35.95
2024-05-09T17:05:39.406Z,35.98
2024-05-09T17:08:07.208Z,35.36
2024-05-09T17:10:36.060Z,35.43
2024-05-09T17:13:04.975Z,34.81
2024-05-09T17:15:33.970Z,34.91
2024-05-09T17:18:01.516Z,35.11
2024-05-09T17:20:33.634Z,35.20
2024-05-09T17:23:04.596Z,35.10
2024-05-09T17:25:32.471Z,34.82
2024-05-09T17:28:06.366Z,34.87
2024-05-09T17:30:37.221Z,34.94
2024-05-09T17:33:08.225Z,34.95
2024-05-09T17:35:36.623Z,35.18
2024-05-09T17:38:05.044Z,35.02
2024-05-09T17:40:35.870Z,35.41
2024-05-09T17:43:05.575Z,36.06
2024-05-09T17:45:33.678Z,35.61
2024-05-09T17:48:01.167Z,35.69
2024-05-09T17:50:35.211Z,36.21
2024-05-09T17:53:05.204Z,36.11
2024-05-09T17:55:33.037Z,36.82
2024-05-09T17:58:00.232Z,36.90
2024-05-09T18:00:36.862Z,37.38
2024-05-09T18:03:08.804Z,37.34
2024-05-09T18:05:37.245Z,37.64
2024-05-09T18:08:06.383Z,38.18
2024-05-09T18:10:37.816Z,38.93
2024-05-09T18:13:08.026Z,38.90
2024-05-09T18:15:35.727Z,39.87
2024-05-09T18:18:03.651Z,40.19
2024-05-09T18:20:40.892Z,40.20
2024-05-09T18:23:11.806Z,40.75
2024-05-09T18:25:39.151Z,41.05
2024-05-09T18:28:06.635Z,41.51
2024-05-09T18:30:36.240Z,41.80
2024-05-09T18:33:06.402Z,42.39
2024-05-09T18:35:35.815Z,42.85
2024-05-09T18:38:03.208Z,43.07
2024-05-09T18:40:34.652Z,43.67
2024-05-09T18:43:05.358Z,43.72
2024-05-09T18:45:34.080Z,44.10
2024-05-09T18:48:01.305Z,44.39
2024-05-09T18:50:35.106Z,44.53
2024-05-09T18:53:06.025Z,45.46
2024-05-09T18:55:33.373Z,44.48
2024-05-09T18:58:00.425Z,45.24
2024-05-09T19:00:34.504Z,45.78
2024-05-09T19:03:08.109Z,46.45
2024-05-09T19:05:36.636Z,46.17
2024-05-09T19:08:03.786Z,46.02
2024-05-09T19:10:34.539Z,46.31
2024-05-09T19:13:07.292Z,46.75
2024-05-09T19:15:39.239Z,46.69
2024-05-09T19:18:06.767Z,46.45
2024-05-09T19:20:35.882Z,46.68
2024-05-09T19:23:04.239Z,47.03
2024-05-09T19:25:32.042Z,47.25
2024-05-09T19:27:59.731Z,47.99
2024-05-09T19:30:36.567Z,47.92
2024-05-09T19:33:08.554Z,48.39
2024-05-09T19:35:36.249Z,48.97
2024-05-09T19:38:03.419Z,48.40
2024-05-09T19:40:33.491Z,48.34
2024-05-09T19:43:02.577Z,48.59
2024-05-09T19:45:30.767Z,49.68
2024-05-09T19:47:57.873Z,49.51
2024-05-09T19:50:32.807Z,48.80
2024-05-09T19:53:07.706Z,48.97
2024-05-09T19:55:35.081Z,49.88
2024-05-09T19:58:05.148Z,49.88
2024-05-09T20:00:40.522Z,50.05
2024-05-09T20:03:10.887Z,50.23
2024-05-09T20:05:38.940Z,50.46
2024-05-09T20:08:06.810Z,50.46
2024-05-09T20:10:35.793Z,50.57
2024-05-09T20:13:05.781Z,50.96
2024-05-09T20:15:35.249Z,51.84
2024-05-09T20:18:02.719Z,52.26
2024-05-09T20:20:37.396Z,51.96
2024-05-09T20:23:08.590Z,53.14
2024-05-09T20:25:35.872Z,52.91
2024-05-09T20:28:02.926Z,53.21
2024-05-09T20:30:32.958Z,53.95
2024-05-09T20:33:07.033Z,54.18
2024-05-09T20:35:35.848Z,54.11
2024-05-09T20:38:03.603Z,54.51
2024-05-09T20:40:35.559Z,55.06
2024-05-09T20:43:06.572Z,55.52
2024-05-09T20:45:34.553Z,55.70
2024-05-09T20:48:02.106Z,56.33
2024-05-09T20:50:37.169Z,56.69
2024-05-09T20:53:09.148Z,56.66
2024-05-09T20:55:36.763Z,57.61
2024-05-09T20:58:03.776Z,57.40
2024-05-09T21:00:39.259Z,57.99
2024-05-09T21:03:09.860Z,58.79
2024-05-09T21:05:37.555Z,58.79
2024-05-09T21:08:04.774Z,59.02
2024-05-09T21:10:33.864Z,59.53
2024-05-09T21:13:02.907Z,59.41
2024-05-09T21:15:31.514Z,59.95
2024-05-09T21:17:58.701Z,60.02
2024-05-09T21:20:31.277Z,61.28
2024-05-09T21:22:59.689Z,61.79
2024-05-09T21:25:27.191Z,62.03
2024-05-09T21:27:54.300Z,61.50
2024-05-09T21:30:32.404Z,62.93
2024-05-09T21:33:12.649Z,62.15
2024-05-09T21:35:42.139Z,63.04
2024-05-09T21:38:09.258Z,63.50
2024-05-09T21:40:37.952Z,64.07
2024-05-09T21:43:07.278Z,64.54
2024-05-09T21:45:35.870Z,65.65
2024-05-09T21:48:07.014Z,64.86
2024-05-09T21:50:40.088Z,64.49
2024-05-09T21:53:10.177Z,66.38
2024-05-09T21:55:37.473Z,66.72
2024-05-09T21:58:04.653Z,67.65
2024-05-09T22:00:36.687Z,68.09
2024-05-09T22:03:08.172Z,68.62
2024-05-09T22:05:37.299Z,68.90
2024-05-09T22:08:04.517Z,69.47
2024-05-09T22:10:34.862Z,70.04
2024-05-09T22:13:07.049Z,70.67
2024-05-09T22:15:36.986Z,71.22
2024-05-09T22:18:05.629Z,69.51
2024-05-09T22:20:37.422Z,68.59
2024-05-09T22:23:06.555Z,68.25
2024-05-09T22:25:34.028Z,68.29
2024-05-09T22:28:02.474Z,68.51
2024-05-09T22:32:59.866Z,67.91
2024-05-09T22:35:27.341Z,68.40
2024-05-09T22:37:54.229Z,68.19
2024-05-09T22:40:29.485Z,68.39
2024-05-09T22:43:06.086Z,68.41
2024-05-09T22:45:33.506Z,69.05
2024-05-09T22:48:00.606Z,69.72
2024-05-09T22:50:32.919Z,71.08
2024-05-09T22:53:00.554Z,72.02
2024-05-09T22:55:27.754Z,72.63
2024-05-09T22:57:54.717Z,73.53
2024-05-09T23:00:30.450Z,72.59
2024-05-09T23:03:02.260Z,73.80
2024-05-09T23:05:30.846Z,74.22
2024-05-09T23:07:58.159Z,74.12
2024-05-09T23:10:32.418Z,73.13
2024-05-09T23:13:03.930Z,74.23
2024-05-09T23:15:31.662Z,75.42
2024-05-09T23:17:59.076Z,76.57
2024-05-09T23:20:33.853Z,77.43
2024-05-09T23:23:05.926Z,77.49
2024-05-09T23:25:33.279Z,78.38
2024-05-09T23:28:00.332Z,79.58
2024-05-09T23:30:36.203Z,79.74
2024-05-09T23:33:06.560Z,80.10
2024-05-09T23:35:33.915Z,79.96
2024-05-09T23:38:00.817Z,79.54
2024-05-09T23:40:37.622Z,78.31
2024-05-09T23:43:08.448Z,77.96
2024-05-09T23:45:36.141Z,79.05
2024-05-09T23:48:03.713Z,79.71
2024-05-09T23:50:35.565Z,79.24
2024-05-09T23:53:06.182Z,79.88
2024-05-09T23:55:34.275Z,80.37
2024-05-09T23:58:01.242Z,80.00
